Time;durP1;ratioP1;P1;durP2;ratioP2;P2;SDS_P1;SDS_P2;PMS_P1;PMS_P2;Temp;Humidity;BMP_temperature;BMP_pressure;BME280_temperature;BME280_humidity;BME280_pressure;Samples;Min_cycle;Max_cycle;Signal;HPM_P1;HPM_P2
2023/07/02 00:02:08;;;;;;;12.05;6.68;;;;;;;22.14;62.07;94628.44;5154917;27;20039;-78
2023/07/02 00:04:33;;;;;;;13.65;6.68;;;;;;;21.92;61.90;94584.06;5136110;27;20497;-78
2023/07/02 00:06:59;;;;;;;14.10;7.22;;;;;;;22.04;62.02;94598.56;5150236;27;20489;-78
2023/07/02 00:09:24;;;;;;;15.27;6.88;;;;;;;21.90;62.18;94585.53;5118527;27;20041;-78
2023/07/02 00:11:50;;;;;;;14.20;7.55;;;;;;;21.81;62.26;94569.59;5126189;27;20042;-78
2023/07/02 00:14:15;;;;;;;11.88;7.28;;;;;;;21.88;62.46;94602.13;5152079;27;20087;-79
2023/07/02 00:16:46;;;;;;;15.32;7.85;;;;;;;21.85;62.95;94616.31;5135979;27;20066;-78
2023/07/02 00:19:14;;;;;;;14.52;6.60;;;;;;;21.24;64.03;94556.97;5154466;27;20039;-78
2023/07/02 00:21:41;;;;;;;16.70;6.45;;;;;;;21.79;63.57;94606.97;5146147;27;20446;-78
2023/07/02 00:24:11;;;;;;;13.48;7.38;;;;;;;21.77;63.14;94587.63;5136193;27;20065;-78
2023/07/02 00:26:41;;;;;;;10.50;6.60;;;;;;;21.61;62.96;94553.78;5135708;27;20453;-79
2023/07/02 00:29:07;;;;;;;12.45;6.63;;;;;;;21.80;62.88;94578.06;5128864;27;20028;-78
2023/07/02 00:31:33;;;;;;;14.02;6.97;;;;;;;21.94;63.03;94613.41;5127550;27;20096;-79
2023/07/02 00:34:00;;;;;;;10.98;6.28;;;;;;;20.82;63.52;94496.78;5149095;27;20034;-78
2023/07/02 00:36:26;;;;;;;17.35;8.00;;;;;;;21.43;63.88;94619.00;5154309;27;20026;-79
2023/07/02 00:38:52;;;;;;;16.55;6.80;;;;;;;21.02;65.14;94604.25;5131953;27;20023;-79
2023/07/02 00:41:18;;;;;;;10.75;6.60;;;;;;;21.22;64.13;94599.66;5133018;27;20035;-79
2023/07/02 00:43:44;;;;;;;14.57;7.80;;;;;;;21.21;63.58;94602.75;5131990;27;20061;-79
2023/07/02 00:46:22;;;;;;;9.40;6.07;;;;;;;21.10;64.02;94626.75;5133859;27;20031;-79
2023/07/02 00:48:50;;;;;;;17.02;7.78;;;;;;;21.01;63.96;94612.69;5132124;27;20035;-79
2023/07/02 00:51:21;;;;;;;14.05;6.75;;;;;;;21.27;63.36;94623.69;5133190;27;20429;-78
2023/07/02 00:53:48;;;;;;;9.80;6.07;;;;;;;21.42;62.87;94630.13;5135028;27;20091;-78
2023/07/02 00:56:15;;;;;;;10.20;6.32;;;;;;;21.08;62.73;94585.88;5135102;27;20164;-79
2023/07/02 00:58:52;;;;;;;12.57;6.38;;;;;;;21.39;62.09;94618.13;5135053;27;20068;-78
2023/07/02 01:01:20;;;;;;;9.88;5.53;;;;;;;21.52;61.82;94619.53;5134585;27;20095;-78
2023/07/02 01:03:57;;;;;;;10.23;5.72;;;;;;;21.58;61.83;94627.38;5134634;27;20102;-78
2023/07/02 01:06:26;;;;;;;13.25;6.57;;;;;;;21.64;61.77;94620.53;5135268;27;20023;-79
2023/07/02 01:08:57;;;;;;;11.95;6.63;;;;;;;21.50;61.60;94602.94;5149243;27;20031;-78
2023/07/02 01:11:45;;;;;;;10.48;6.40;;;;;;;21.78;61.24;94628.91;5133772;27;20038;-78
2023/07/02 01:14:33;;;;;;;11.93;6.13;;;;;;;21.62;61.09;94595.81;5134870;27;20035;-78
2023/07/02 01:17:00;;;;;;;12.15;7.35;;;;;;;21.51;61.84;94609.88;5134649;27;20050;-79
2023/07/02 01:19:35;;;;;;;10.70;6.57;;;;;;;21.61;62.21;94629.34;5134667;27;20067;-78
2023/07/02 01:22:01;;;;;;;12.30;7.55;;;;;;;21.53;62.64;94623.81;5135031;27;20412;-78
2023/07/02 01:24:27;;;;;;;12.77;6.85;;;;;;;21.37;62.36;94590.72;5131847;27;20031;-78
2023/07/02 01:26:53;;;;;;;13.10;7.35;;;;;;;21.53;62.25;94610.31;5134264;27;20440;-79
2023/07/02 01:29:20;;;;;;;14.18;7.50;;;;;;;21.44;62.41;94596.25;5153285;27;20095;-79
2023/07/02 01:31:47;;;;;;;12.10;6.68;;;;;;;21.54;62.85;94625.38;5134442;27;20026;-78
2023/07/02 01:34:13;;;;;;;13.95;6.72;;;;;;;21.69;62.55;94614.84;5152554;27;20023;-78
2023/07/02 01:36:39;;;;;;;15.30;6.60;;;;;;;21.59;63.24;94597.31;5134311;27;20039;-78
2023/07/02 01:39:05;;;;;;;12.50;6.95;;;;;;;21.23;63.18;94541.91;5153395;27;20438;-78
2023/07/02 01:41:38;;;;;;;15.20;7.32;;;;;;;21.37;63.20;94561.06;5134345;27;20519;-78
2023/07/02 01:44:03;;;;;;;11.95;7.00;;;;;;;21.69;63.09;94594.03;5133459;27;20043;-78
2023/07/02 01:46:29;;;;;;;11.77;7.05;;;;;;;21.21;63.13;94519.91;5133760;27;20042;-79
2023/07/02 01:48:55;;;;;;;12.75;6.97;;;;;;;21.65;62.92;94587.03;5133859;27;20035;-78
2023/07/02 01:51:20;;;;;;;11.55;7.03;;;;;;;21.65;63.94;94600.53;5118412;27;20043;-78
2023/07/02 01:53:46;;;;;;;18.70;7.80;;;;;;;21.59;65.84;94597.31;5131534;27;20057;-81
2023/07/02 01:56:11;;;;;;;14.48;7.70;;;;;;;21.62;66.59;94587.72;5139768;27;20037;-81
2023/07/02 01:58:37;;;;;;;16.23;8.18;;;;;;;21.64;67.00;94594.34;5151510;27;20092;-80
2023/07/02 02:01:02;;;;;;;17.00;7.93;;;;;;;21.63;67.11;94589.28;5152218;27;20073;-80
2023/07/02 02:03:27;;;;;;;19.30;8.00;;;;;;;21.47;66.73;94565.09;5151782;27;20114;-80
2023/07/02 02:05:53;;;;;;;16.35;8.32;;;;;;;21.56;66.39;94584.56;5132870;27;20559;-80
2023/07/02 02:08:18;;;;;;;14.23;8.20;;;;;;;21.52;66.70;94587.16;5151589;27;20022;-80
2023/07/02 02:10:44;;;;;;;15.65;7.53;;;;;;;21.38;67.75;94554.53;5132898;27;20027;-80
2023/07/02 02:13:09;;;;;;;14.82;7.22;;;;;;;21.26;67.35;94567.41;5151987;27;20031;-80
2023/07/02 02:15:34;;;;;;;17.20;8.27;;;;;;;21.03;67.19;94553.81;5142637;27;20033;-80
2023/07/02 02:18:00;;;;;;;19.50;8.35;;;;;;;20.79;66.72;94503.66;5151386;27;20088;-80
2023/07/02 02:20:25;;;;;;;18.08;8.55;;;;;;;21.21;67.78;94591.97;5151843;27;20039;-80
2023/07/02 02:22:51;;;;;;;18.08;7.95;;;;;;;20.98;66.83;94573.72;5132716;27;20043;-80
2023/07/02 02:25:16;;;;;;;17.65;8.57;;;;;;;20.97;67.31;94560.63;5132508;27;20053;-81
2023/07/02 02:27:43;;;;;;;18.30;8.52;;;;;;;20.65;69.54;94514.91;5132786;27;20077;-80
2023/07/02 02:30:08;;;;;;;19.85;7.97;;;;;;;20.86;68.71;94557.69;5116097;27;20118;-80
2023/07/02 02:32:34;;;;;;;20.83;8.85;;;;;;;20.82;67.43;94548.75;5129939;27;20114;-80
2023/07/02 02:34:59;;;;;;;23.15;8.25;;;;;;;20.80;68.92;94557.19;5132459;27;20022;-81
2023/07/02 02:37:25;;;;;;;20.33;8.20;;;;;;;20.94;68.87;94580.19;5132823;27;20501;-80
2023/07/02 02:39:50;;;;;;;16.17;7.90;;;;;;;20.70;68.38;94552.34;5112956;27;20137;-80
2023/07/02 02:42:17;;;;;;;20.45;8.60;;;;;;;20.68;68.58;94553.81;5150498;27;20048;-80
2023/07/02 02:44:42;;;;;;;15.10;8.07;;;;;;;20.65;68.20;94558.03;5121308;27;20154;-80
2023/07/02 02:47:07;;;;;;;19.90;8.60;;;;;;;20.71;69.67;94556.63;5147766;27;20110;-81
2023/07/02 02:49:33;;;;;;;21.15;8.85;;;;;;;20.48;70.46;94536.06;5150930;27;20125;-81
2023/07/02 02:51:58;;;;;;;19.38;8.43;;;;;;;20.51;69.17;94552.31;5151335;27;20042;-80
2023/07/02 02:54:24;;;;;;;17.42;8.57;;;;;;;20.70;70.16;94570.44;5132513;27;20030;-80
2023/07/02 02:56:49;;;;;;;17.05;7.55;;;;;;;20.74;69.73;94582.09;5150982;27;20047;-80
2023/07/02 02:59:15;;;;;;;19.15;7.78;;;;;;;20.59;68.96;94561.34;5120603;27;20451;-80
2023/07/02 03:01:40;;;;;;;19.50;7.45;;;;;;;20.70;68.70;94584.69;5130473;27;20598;-80
2023/07/02 03:04:08;;;;;;;14.68;7.05;;;;;;;20.32;69.57;94539.53;5129188;28;20039;-80
2023/07/02 03:06:34;;;;;;;16.23;7.75;;;;;;;20.73;69.96;94575.91;5129358;27;20125;-80
2023/07/02 03:08:59;;;;;;;12.93;7.22;;;;;;;20.72;70.79;94587.03;5134697;27;20073;-80
2023/07/02 03:11:25;;;;;;;20.75;7.85;;;;;;;20.51;69.73;94538.84;5136499;27;20360;-80
2023/07/02 03:13:50;;;;;;;18.10;7.85;;;;;;;20.57;69.44;94537.44;5155095;27;20083;-80
2023/07/02 03:16:15;;;;;;;19.85;7.75;;;;;;;20.52;69.92;94526.94;5136061;27;20062;-80
2023/07/02 03:18:41;;;;;;;19.55;7.93;;;;;;;20.58;69.89;94517.47;5136588;27;20109;-80
2023/07/02 03:21:06;;;;;;;17.52;8.65;;;;;;;20.46;69.17;94500.63;5155215;27;20489;-80
2023/07/02 03:23:32;;;;;;;16.85;8.27;;;;;;;20.84;69.06;94557.25;5154953;27;20027;-80
2023/07/02 03:25:57;;;;;;;21.40;8.07;;;;;;;20.69;69.21;94536.53;5136090;27;20035;-80
2023/07/02 03:28:23;;;;;;;16.63;7.43;;;;;;;20.97;68.96;94587.56;5153247;27;20038;-81
2023/07/02 03:30:48;;;;;;;16.45;8.18;;;;;;;20.64;69.48;94553.75;5126203;27;20367;-81
2023/07/02 03:33:13;;;;;;;15.23;7.55;;;;;;;20.85;68.89;94574.22;5133247;27;20027;-80
2023/07/02 03:35:39;;;;;;;20.58;8.38;;;;;;;20.83;67.49;94571.88;5136120;27;20438;-80
2023/07/02 03:38:06;;;;;;;13.75;7.28;;;;;;;20.74;67.48;94587.47;5135765;27;20127;-80
2023/07/02 03:40:31;;;;;;;14.38;7.15;;;;;;;20.25;68.26;94562.84;5136123;27;20034;-81
2023/07/02 03:42:57;;;;;;;14.15;7.95;;;;;;;20.48;68.29;94576.47;5135903;27;20046;-80
2023/07/02 03:45:22;;;;;;;17.75;8.10;;;;;;;20.42;67.69;94579.44;5136036;27;20042;-80
2023/07/02 03:47:47;;;;;;;15.60;9.00;;;;;;;20.70;67.45;94613.53;5153839;27;20519;-80
2023/07/02 03:50:13;;;;;;;21.38;8.07;;;;;;;20.34;67.66;94553.47;5151483;27;20030;-80
2023/07/02 03:52:38;;;;;;;15.07;7.60;;;;;;;20.72;67.84;94589.72;5154596;27;20038;-80
2023/07/02 03:55:04;;;;;;;19.20;8.27;;;;;;;20.84;67.80;94596.91;5153991;27;20535;-80
2023/07/02 03:57:30;;;;;;;17.58;8.07;;;;;;;20.76;67.70;94566.31;5134896;27;20041;-80
2023/07/02 03:59:55;;;;;;;18.85;8.23;;;;;;;20.93;67.17;94581.31;5135510;27;20030;-80
2023/07/02 04:02:21;;;;;;;21.15;12.40;;;;;;;20.81;67.36;94584.94;5135764;27;20121;-81
2023/07/02 04:04:46;;;;;;;28.48;11.70;;;;;;;20.83;67.53;94582.63;5135602;27;20035;-81
2023/07/02 04:07:12;;;;;;;31.77;17.83;;;;;;;20.78;67.97;94581.00;5134563;27;20524;-80
2023/07/02 04:09:37;;;;;;;28.45;18.73;;;;;;;20.74;67.69;94565.91;5145656;27;20034;-80
2023/07/02 04:12:04;;;;;;;25.83;17.35;;;;;;;21.02;68.13;94611.56;5125943;27;20031;-80
2023/07/02 04:14:29;;;;;;;31.13;17.33;;;;;;;21.00;68.21;94586.84;5133295;27;20034;-80
2023/07/02 04:16:55;;;;;;;23.63;17.30;;;;;;;21.05;68.08;94590.06;5144470;27;20269;-81
2023/07/02 04:19:20;;;;;;;28.80;18.08;;;;;;;20.69;67.79;94539.22;5152988;27;20027;-80
2023/07/02 04:21:46;;;;;;;32.10;16.63;;;;;;;21.19;67.97;94621.97;5135315;27;20058;-81
2023/07/02 04:24:12;;;;;;;30.55;14.95;;;;;;;21.07;67.53;94600.47;5135276;27;20098;-80
2023/07/02 04:26:37;;;;;;;25.70;13.38;;;;;;;21.28;67.46;94641.44;5135330;27;20504;-80
2023/07/02 04:29:03;;;;;;;25.67;13.27;;;;;;;21.02;67.76;94606.16;5117340;27;20053;-81
2023/07/02 04:31:28;;;;;;;21.45;11.25;;;;;;;21.26;67.50;94632.91;5135139;27;20034;-80
2023/07/02 04:33:53;;;;;;;23.98;11.30;;;;;;;21.13;67.55;94620.66;5134819;27;20023;-80
2023/07/02 04:36:19;;;;;;;14.38;9.57;;;;;;;21.04;67.80;94620.84;5135003;27;20027;-80
2023/07/02 04:38:44;;;;;;;18.80;9.57;;;;;;;21.25;67.41;94636.72;5134568;27;20023;-80
2023/07/02 04:41:10;;;;;;;16.05;8.60;;;;;;;21.16;67.25;94619.94;5153357;27;20389;-80
2023/07/02 04:43:36;;;;;;;18.33;9.40;;;;;;;21.04;67.28;94614.69;5153361;27;20131;-80
2023/07/02 04:46:01;;;;;;;18.00;9.20;;;;;;;21.09;66.73;94625.19;5134827;27;20087;-80
2023/07/02 04:48:27;;;;;;;28.38;10.05;;;;;;;21.07;66.66;94628.22;5134658;27;20027;-80
2023/07/02 04:50:53;;;;;;;18.27;9.48;;;;;;;21.17;66.38;94637.72;5153181;27;20503;-80
2023/07/02 04:53:18;;;;;;;19.05;9.32;;;;;;;21.21;66.11;94645.88;5134734;27;20067;-80
2023/07/02 04:55:44;;;;;;;19.58;8.77;;;;;;;21.11;66.16;94620.22;5134589;27;20058;-80
2023/07/02 04:58:09;;;;;;;21.33;10.77;;;;;;;21.33;66.18;94657.31;5134588;27;20027;-80
2023/07/02 05:00:34;;;;;;;19.38;8.90;;;;;;;21.25;66.31;94639.44;5134025;27;20030;-80
2023/07/02 05:03:00;;;;;;;21.58;10.18;;;;;;;21.44;66.43;94668.31;5153151;27;20054;-80
2023/07/02 05:05:25;;;;;;;19.45;9.45;;;;;;;21.30;66.45;94649.13;5134330;27;20062;-80
2023/07/02 05:07:51;;;;;;;23.63;10.13;;;;;;;21.21;66.32;94622.38;5134352;27;20034;-80
2023/07/02 05:10:17;;;;;;;22.58;9.32;;;;;;;21.44;66.22;94658.31;5152265;27;20027;-80
2023/07/02 05:12:42;;;;;;;14.93;8.73;;;;;;;20.57;66.21;94517.81;5134280;27;20026;-80
2023/07/02 05:15:08;;;;;;;22.40;10.07;;;;;;;21.51;66.05;94655.75;5133943;27;20038;-80
2023/07/02 05:17:35;;;;;;;19.88;9.13;;;;;;;21.46;65.49;94636.38;5129478;27;20058;-80
2023/07/02 05:20:04;;;;;;;22.90;10.13;;;;;;;21.53;65.73;94656.19;5128710;27;20446;-80
2023/07/02 05:22:29;;;;;;;22.05;9.38;;;;;;;21.53;65.49;94640.00;5134130;27;20035;-80
2023/07/02 05:24:55;;;;;;;18.65;9.73;;;;;;;21.55;65.48;94642.34;5152997;27;20357;-80
2023/07/02 05:27:20;;;;;;;20.02;8.98;;;;;;;21.61;65.16;94649.00;5146730;27;20034;-80
2023/07/02 05:29:46;;;;;;;20.85;9.57;;;;;;;21.50;65.53;94656.91;5122472;27;20513;-80
2023/07/02 05:32:11;;;;;;;17.58;9.35;;;;;;;21.59;65.80;94659.38;5132243;27;20027;-80
2023/07/02 05:34:37;;;;;;;24.52;8.98;;;;;;;21.79;65.29;94663.63;5143531;27;20027;-80
2023/07/02 05:37:02;;;;;;;16.58;8.88;;;;;;;21.45;65.55;94615.94;5117364;27;20039;-80
2023/07/02 05:39:28;;;;;;;15.65;8.95;;;;;;;21.75;65.59;94649.28;5132857;27;20490;-80
2023/07/02 05:41:53;;;;;;;19.65;9.80;;;;;;;21.95;65.36;94674.34;5123298;27;20187;-80
2023/07/02 05:44:19;;;;;;;22.75;9.40;;;;;;;21.60;65.29;94623.16;5141295;27;20027;-80
2023/07/02 05:46:44;;;;;;;22.20;9.52;;;;;;;22.12;64.67;94687.44;5133626;27;20044;-80
2023/07/02 05:49:10;;;;;;;19.02;8.75;;;;;;;21.98;64.42;94643.16;5135530;27;20058;-80
2023/07/02 05:51:35;;;;;;;14.25;8.00;;;;;;;21.61;64.04;94613.16;5121445;27;20027;-81
2023/07/02 05:54:01;;;;;;;19.17;9.35;;;;;;;21.96;63.53;94632.72;5147202;27;20026;-81
2023/07/02 05:56:26;;;;;;;17.30;8.10;;;;;;;22.31;62.94;94681.97;5152382;27;20026;-80
2023/07/02 05:58:52;;;;;;;24.38;9.55;;;;;;;22.09;62.58;94665.75;5133421;27;20027;-81
2023/07/02 06:01:17;;;;;;;17.83;9.25;;;;;;;22.37;62.27;94687.06;5151586;27;20087;-80
2023/07/02 06:03:45;;;;;;;14.20;8.18;;;;;;;22.19;61.52;94647.06;5133358;27;20023;-81
2023/07/02 06:06:11;;;;;;;18.30;8.40;;;;;;;22.31;61.19;94659.59;5144824;27;20030;-80
2023/07/02 06:08:37;;;;;;;14.18;8.30;;;;;;;22.36;61.42;94674.72;5130693;27;20098;-80
2023/07/02 06:11:02;;;;;;;16.20;8.65;;;;;;;22.33;60.65;94658.09;5133021;27;20121;-80
2023/07/02 06:13:28;;;;;;;17.45;8.45;;;;;;;22.44;60.63;94658.25;5115448;27;20106;-81
2023/07/02 06:15:53;;;;;;;20.55;9.35;;;;;;;22.20;60.59;94637.03;5133079;27;20074;-80
2023/07/02 06:18:19;;;;;;;17.08;9.75;;;;;;;22.16;61.02;94647.75;5131767;27;20090;-80
2023/07/02 06:20:45;;;;;;;15.60;9.25;;;;;;;22.21;61.02;94654.78;5129624;27;20050;-81
2023/07/02 06:23:10;;;;;;;17.30;9.32;;;;;;;22.26;61.30;94659.91;5147890;27;20434;-81
2023/07/02 06:25:36;;;;;;;20.65;10.00;;;;;;;22.07;60.93;94620.19;5151652;27;20034;-80
2023/07/02 06:28:01;;;;;;;18.65;10.43;;;;;;;22.23;60.80;94630.91;5132800;27;20045;-80
2023/07/02 06:30:27;;;;;;;22.42;9.98;;;;;;;21.82;61.24;94629.72;5133065;27;20508;-80
2023/07/02 06:32:54;;;;;;;22.90;11.18;;;;;;;21.63;62.06;94622.47;5151072;27;20464;-80
2023/07/02 06:35:21;;;;;;;20.02;11.20;;;;;;;21.75;62.21;94619.59;5151415;27;20030;-81
2023/07/02 06:37:47;;;;;;;20.90;10.60;;;;;;;22.11;61.10;94639.19;5132784;27;20042;-81
2023/07/02 06:40:12;;;;;;;24.02;10.82;;;;;;;22.20;61.28;94645.88;5132720;27;20030;-80
2023/07/02 06:42:38;;;;;;;17.95;10.20;;;;;;;22.22;60.55;94618.53;5132130;27;20064;-80
2023/07/02 06:45:05;;;;;;;19.60;10.45;;;;;;;22.48;60.22;94642.13;5132457;27;20110;-81
2023/07/02 06:47:30;;;;;;;20.85;11.07;;;;;;;22.78;59.98;94664.63;5132458;27;20062;-81
2023/07/02 06:49:56;;;;;;;17.33;10.45;;;;;;;22.90;59.91;94659.03;5132608;27;20030;-80
2023/07/02 06:52:21;;;;;;;20.38;9.70;;;;;;;22.91;59.58;94630.06;5126145;27;20046;-80
2023/07/02 06:54:47;;;;;;;16.17;10.25;;;;;;;22.96;58.73;94627.81;5130010;27;20023;-80
2023/07/02 06:57:13;;;;;;;19.85;10.00;;;;;;;23.09;58.40;94629.19;5130195;27;20046;-81
2023/07/02 06:59:39;;;;;;;20.42;9.63;;;;;;;23.34;58.48;94656.56;5128956;27;20041;-81
2023/07/02 07:02:05;;;;;;;24.30;10.30;;;;;;;23.30;57.68;94630.59;5129205;28;20067;-81
2023/07/02 07:04:30;;;;;;;17.73;8.93;;;;;;;23.39;57.51;94655.44;5128428;27;20065;-80
2023/07/02 07:06:56;;;;;;;17.45;8.90;;;;;;;23.35;57.67;94636.47;5128915;28;20035;-81
2023/07/02 07:09:22;;;;;;;17.30;9.93;;;;;;;23.43;58.34;94635.41;5130838;27;20024;-81
2023/07/02 07:11:47;;;;;;;21.02;9.52;;;;;;;23.72;57.81;94657.44;5132300;27;20445;-81
2023/07/02 07:14:13;;;;;;;18.92;8.75;;;;;;;23.56;57.77;94619.75;5150795;27;20042;-80
2023/07/02 07:16:38;;;;;;;16.70;9.18;;;;;;;23.55;57.70;94610.06;5128581;28;20111;-80
2023/07/02 07:19:04;;;;;;;15.05;8.80;;;;;;;23.89;57.41;94654.13;5130098;27;20039;-80
2023/07/02 07:21:29;;;;;;;23.67;9.63;;;;;;;23.88;56.92;94651.81;5128860;28;20131;-81
2023/07/02 07:23:55;;;;;;;18.00;9.90;;;;;;;23.81;56.76;94625.41;5114788;28;20153;-80
2023/07/02 07:26:20;;;;;;;24.10;9.65;;;;;;;23.92;56.32;94636.38;5118430;28;20126;-80
2023/07/02 07:28:46;;;;;;;21.00;9.68;;;;;;;24.04;56.49;94663.19;5128645;28;20070;-81
2023/07/02 07:31:11;;;;;;;21.48;7.75;;;;;;;23.91;56.83;94637.53;5128410;27;20035;-80
2023/07/02 07:33:37;;;;;;;12.07;7.72;;;;;;;23.25;57.07;94579.53;5130115;27;20042;-80
2023/07/02 07:36:02;;;;;;;17.65;8.50;;;;;;;23.76;56.70;94636.59;5130065;27;20375;-80
2023/07/02 07:38:28;;;;;;;19.35;8.32;;;;;;;23.68;56.35;94597.06;5130271;27;20413;-81
2023/07/02 07:40:53;;;;;;;15.18;8.48;;;;;;;23.87;56.11;94621.25;5128418;28;20130;-81
2023/07/02 07:43:18;;;;;;;13.07;7.40;;;;;;;23.74;56.52;94598.28;5129915;28;20036;-80
2023/07/02 07:45:44;;;;;;;13.73;8.00;;;;;;;23.90;56.55;94630.56;5129700;27;20035;-80
2023/07/02 07:48:09;;;;;;;14.65;8.60;;;;;;;23.85;56.34;94612.72;5128569;28;20031;-81
2023/07/02 07:50:35;;;;;;;16.42;8.30;;;;;;;23.81;56.40;94609.97;5128228;28;20470;-81
2023/07/02 07:53:00;;;;;;;20.40;8.73;;;;;;;23.82;56.28;94618.88;5130900;27;20031;-80
2023/07/02 07:55:26;;;;;;;15.07;8.60;;;;;;;24.03;56.56;94645.41;5133615;27;20038;-81
2023/07/02 07:57:51;;;;;;;22.90;9.00;;;;;;;23.72;57.18;94612.22;5132332;27;20069;-80
2023/07/02 08:00:17;;;;;;;20.90;9.27;;;;;;;24.02;56.90;94635.72;5133739;27;20114;-81
2023/07/02 08:02:43;;;;;;;20.10;9.10;;;;;;;24.18;56.84;94657.94;5123728;27;20027;-81
2023/07/02 08:05:09;;;;;;;15.82;8.98;;;;;;;24.22;56.81;94664.97;5111283;28;20036;-81
2023/07/02 08:07:35;;;;;;;24.02;9.30;;;;;;;24.16;56.76;94650.19;5125290;27;20035;-81
2023/07/02 08:10:02;;;;;;;29.00;9.27;;;;;;;24.21;56.82;94638.25;5133296;27;20042;-81
2023/07/02 08:12:29;;;;;;;14.25;8.82;;;;;;;24.33;56.86;94664.31;5133509;27;20034;-81
2023/07/02 08:14:55;;;;;;;17.73;9.30;;;;;;;24.39;56.26;94662.81;5132074;27;20099;-81
2023/07/02 08:17:20;;;;;;;18.05;9.25;;;;;;;24.23;56.14;94628.59;5148054;27;20050;-81
2023/07/02 08:19:46;;;;;;;20.88;8.15;;;;;;;24.42;55.68;94643.84;5154108;27;20050;-81
2023/07/02 08:22:12;;;;;;;15.18;8.00;;;;;;;24.37;55.43;94644.22;5154034;27;20443;-81
2023/07/02 08:24:37;;;;;;;21.52;8.60;;;;;;;24.66;55.50;94656.06;5153492;27;20027;-81
2023/07/02 08:27:03;;;;;;;17.17;8.27;;;;;;;24.40;55.70;94659.72;5134818;27;20504;-81
2023/07/02 08:29:30;;;;;;;10.68;7.28;;;;;;;24.41;55.60;94655.09;5153920;27;21665;-80
2023/07/02 08:31:58;;;;;;;14.63;8.18;;;;;;;24.49;54.83;94654.75;5135005;27;20079;-81
2023/07/02 08:34:24;;;;;;;13.27;8.20;;;;;;;24.25;55.27;94619.31;5150430;27;20101;-81
2023/07/02 08:36:49;;;;;;;20.77;8.27;;;;;;;24.24;55.19;94602.28;5132041;27;20029;-81
2023/07/02 08:39:15;;;;;;;20.50;8.10;;;;;;;24.06;55.16;94574.22;5133252;27;20019;-81
2023/07/02 08:41:48;;;;;;;13.00;7.65;;;;;;;24.37;55.33;94624.47;5135004;27;20036;-81
2023/07/02 08:44:18;;;;;;;13.73;7.53;;;;;;;24.36;55.47;94599.28;5134710;27;20050;-81
2023/07/02 08:46:44;;;;;;;12.93;7.30;;;;;;;24.38;54.18;94583.44;5141566;27;20027;-81
2023/07/02 08:49:10;;;;;;;18.23;7.85;;;;;;;24.43;54.04;94571.47;5132921;27;20027;-80
2023/07/02 08:51:36;;;;;;;15.10;7.72;;;;;;;24.61;54.05;94592.13;5130289;27;20098;-81
2023/07/02 08:54:02;;;;;;;18.50;8.20;;;;;;;25.00;53.98;94651.31;5140278;27;20026;-81
2023/07/02 08:56:28;;;;;;;14.35;7.30;;;;;;;24.95;54.17;94638.88;5134538;27;20038;-81
2023/07/02 08:58:54;;;;;;;22.83;7.65;;;;;;;25.00;53.65;94637.75;5153242;27;20101;-81
2023/07/02 09:01:19;;;;;;;10.73;7.32;;;;;;;25.02;53.61;94612.97;5134449;27;20435;-80
2023/07/02 09:03:45;;;;;;;14.55;8.38;;;;;;;25.16;54.87;94626.63;5133426;27;20035;-81
2023/07/02 09:06:12;;;;;;;14.00;7.65;;;;;;;25.15;55.18;94627.78;5115871;27;20536;-81
2023/07/02 09:08:38;;;;;;;16.02;8.18;;;;;;;25.35;53.99;94648.03;5133843;27;20022;-81
2023/07/02 09:11:07;;;;;;;11.90;7.72;;;;;;;25.46;54.07;94638.00;5134073;27;20552;-81
2023/07/02 09:13:52;;;;;;;10.52;7.10;;;;;;;25.45;52.76;94624.81;5152827;27;20026;-81
2023/07/02 09:16:39;;;;;;;10.93;7.15;;;;;;;25.42;52.49;94620.91;5152618;27;20133;-81
2023/07/02 09:19:09;;;;;;;13.98;7.20;;;;;;;25.46;53.38;94634.50;5152416;27;20542;-81
2023/07/02 09:21:53;;;;;;;14.05;7.32;;;;;;;25.63;52.65;94639.28;5152503;27;20035;-81
2023/07/02 09:24:23;;;;;;;12.35;7.03;;;;;;;25.75;52.48;94633.50;5152420;27;20107;-81
2023/07/02 09:26:49;;;;;;;11.38;6.55;;;;;;;25.88;49.87;94631.19;5152707;27;20019;-81
2023/07/02 09:29:22;;;;;;;10.55;5.95;;;;;;;25.22;50.13;94511.13;5151333;27;20497;-81
2023/07/02 09:31:48;;;;;;;10.35;6.55;;;;;;;25.97;50.57;94604.44;5107029;27;20027;-81
2023/07/02 09:34:14;;;;;;;11.52;7.18;;;;;;;26.11;49.37;94594.38;5130813;27;20023;-81
2023/07/02 09:36:41;;;;;;;13.07;7.35;;;;;;;25.83;49.20;94526.44;5152493;27;20066;-81
2023/07/02 09:39:22;;;;;;;11.38;6.50;;;;;;;26.08;49.60;94550.91;5133314;27;20159;-81
2023/07/02 09:41:49;;;;;;;12.70;6.60;;;;;;;26.32;48.42;94593.66;5140052;27;20034;-81
2023/07/02 09:44:17;;;;;;;10.98;6.85;;;;;;;26.62;48.39;94609.59;5140795;27;20578;-80
2023/07/02 09:46:49;;;;;;;14.43;6.93;;;;;;;26.57;49.11;94576.56;5133326;27;20447;-81
2023/07/02 09:49:17;;;;;;;12.27;7.05;;;;;;;27.02;49.09;94622.00;5131875;27;20027;-81
2023/07/02 09:51:44;;;;;;;10.55;7.10;;;;;;;26.63;50.02;94594.03;5122403;27;20067;-81
2023/07/02 09:54:10;;;;;;;14.50;7.38;;;;;;;26.91;49.79;94607.66;5130032;27;20120;-82
2023/07/02 09:56:36;;;;;;;13.05;7.35;;;;;;;26.76;50.10;94584.34;5126438;27;20032;-80
2023/07/02 09:59:01;;;;;;;12.07;7.40;;;;;;;26.99;49.57;94609.19;5113799;27;20054;-80
2023/07/02 10:01:26;;;;;;;11.27;6.93;;;;;;;27.08;49.26;94623.16;5148187;27;20113;-81
2023/07/02 10:03:52;;;;;;;15.25;7.63;;;;;;;26.83;49.47;94576.16;5145383;27;20449;-80
2023/07/02 10:06:17;;;;;;;13.70;7.35;;;;;;;27.16;49.09;94599.41;5151964;27;20027;-80
2023/07/02 10:08:56;;;;;;;11.30;7.22;;;;;;;27.14;49.50;94588.16;5132967;27;20043;-81
2023/07/02 10:11:33;;;;;;;8.80;6.82;;;;;;;27.07;47.54;94566.41;5150048;27;20106;-81
2023/07/02 10:13:59;;;;;;;13.82;6.93;;;;;;;27.21;47.03;94583.47;5146524;27;20461;-81
2023/07/02 10:16:27;;;;;;;11.10;6.55;;;;;;;27.11;45.56;94561.72;5150820;27;20047;-81
2023/07/02 10:18:53;;;;;;;13.05;6.72;;;;;;;27.82;45.40;94592.22;5131762;27;20393;-81
2023/07/02 10:21:19;;;;;;;12.45;7.28;;;;;;;28.02;45.01;94530.56;5110524;27;20490;-81
2023/07/02 10:23:45;;;;;;;12.57;6.80;;;;;;;28.99;42.73;94564.06;5117795;27;20035;-81
2023/07/02 10:26:16;;;;;;;10.02;6.07;;;;;;;29.85;41.81;94582.97;5151347;27;20500;-80
2023/07/02 10:28:42;;;;;;;9.32;6.10;;;;;;;30.30;41.84;94547.97;5151477;27;20056;-80
2023/07/02 10:31:21;;;;;;;14.70;6.03;;;;;;;30.94;39.13;94552.41;5150620;27;20034;-80
2023/07/02 10:33:47;;;;;;;9.50;5.43;;;;;;;31.58;37.20;94541.00;5140406;27;20035;-80
2023/07/02 10:36:25;;;;;;;9.32;5.45;;;;;;;32.07;37.24;94555.63;5130050;27;20038;-81
2023/07/02 10:38:51;;;;;;;14.38;6.45;;;;;;;32.28;35.37;94543.41;5129044;27;20144;-81
2023/07/02 10:41:27;;;;;;;9.23;6.05;;;;;;;32.85;34.86;94573.03;5130379;27;20078;-81
2023/07/02 10:43:53;;;;;;;9.77;5.53;;;;;;;33.20;33.64;94563.09;5129126;27;20058;-81
2023/07/02 10:46:22;;;;;;;10.50;5.60;;;;;;;33.19;33.76;94544.25;5130446;27;20035;-81
2023/07/02 10:49:08;;;;;;;7.72;5.38;;;;;;;33.84;32.78;94566.84;5130168;27;20693;-81
2023/07/02 10:51:34;;;;;;;8.90;5.70;;;;;;;33.79;32.90;94531.63;5128295;27;20098;-82
2023/07/02 10:54:00;;;;;;;9.23;6.07;;;;;;;33.78;32.43;94541.09;5128648;27;20035;-81
2023/07/02 10:56:29;;;;;;;8.88;5.40;;;;;;;33.54;32.68;94524.06;5130615;27;20066;-81
2023/07/02 10:58:55;;;;;;;8.63;6.05;;;;;;;34.09;32.83;94555.88;5130645;27;20031;-82
2023/07/02 11:01:31;;;;;;;11.18;5.88;;;;;;;33.84;31.50;94544.81;5128183;27;20062;-81
2023/07/02 11:04:01;;;;;;;8.43;5.70;;;;;;;33.99;32.68;94548.69;5130100;27;20050;-81
2023/07/02 11:06:28;;;;;;;8.35;5.65;;;;;;;34.19;33.31;94556.72;5141172;27;20026;-81
2023/07/02 11:08:57;;;;;;;8.93;5.25;;;;;;;34.30;32.13;94532.44;5132256;27;20035;-81
2023/07/02 11:11:23;;;;;;;9.20;5.57;;;;;;;34.01;30.16;94554.53;5130048;27;20493;-81
2023/07/02 11:13:50;;;;;;;10.07;5.25;;;;;;;33.69;30.73;94536.19;5144165;27;20049;-81
2023/07/02 11:16:28;;;;;;;14.40;6.53;;;;;;;33.84;30.65;94533.06;5131863;27;20087;-81
2023/07/02 11:19:06;;;;;;;7.50;5.45;;;;;;;32.89;30.64;94542.72;5151358;27;20054;-81
2023/07/02 11:21:31;;;;;;;10.75;5.95;;;;;;;33.24;30.23;94543.78;5132113;27;20048;-81
2023/07/02 11:24:05;;;;;;;7.07;5.35;;;;;;;33.47;29.97;94559.25;5131873;27;20461;-82